sensor_id;sensor_type;location;lat;lon;timestamp;pressure;altitude;pressure_sealevel;temperature;humidity
69187;BME280;56301;56.864;60.554;2023-04-29T00:00:34;98885.56;;;24.95;31.11
69187;BME280;56301;56.864;60.554;2023-04-29T00:02:56;98887.25;;;24.96;30.88
69187;BME280;56301;56.864;60.554;2023-04-29T00:05:18;98886.22;;;24.97;30.99
69187;BME280;56301;56.864;60.554;2023-04-29T00:07:41;98892.47;;;24.97;30.57
69187;BME280;56301;56.864;60.554;2023-04-29T00:10:03;98896.00;;;24.98;31.04
69187;BME280;56301;56.864;60.554;2023-04-29T00:12:26;98892.28;;;24.99;30.97
69187;BME280;56301;56.864;60.554;2023-04-29T00:14:49;98886.88;;;24.99;31.00
69187;BME280;56301;56.864;60.554;2023-04-29T00:17:11;98886.88;;;24.99;30.62
69187;BME280;56301;56.864;60.554;2023-04-29T00:19:33;98892.28;;;24.99;31.09
69187;BME280;56301;56.864;60.554;2023-04-29T00:21:56;98883.34;;;24.98;31.35
69187;BME280;56301;56.864;60.554;2023-04-29T00:24:18;98886.88;;;24.99;31.19
69187;BME280;56301;56.864;60.554;2023-04-29T00:26:41;98895.00;;;24.99;30.95
69187;BME280;56301;56.864;60.554;2023-04-29T00:29:03;98884.81;;;25.01;30.67
69187;BME280;56301;56.864;60.554;2023-04-29T00:31:26;98886.69;;;25.01;30.40
69187;BME280;56301;56.864;60.554;2023-04-29T00:33:48;98892.78;;;25.03;30.35
69187;BME280;56301;56.864;60.554;2023-04-29T00:36:11;98894.44;;;25.04;30.55
69187;BME280;56301;56.864;60.554;2023-04-29T00:38:33;98898.19;;;25.03;30.69
69187;BME280;56301;56.864;60.554;2023-04-29T00:40:56;98899.03;;;25.03;30.60
69187;BME280;56301;56.864;60.554;2023-04-29T00:43:18;98898.00;;;25.04;30.61
69187;BME280;56301;56.864;60.554;2023-04-29T00:45:41;98898.66;;;25.06;30.45
69187;BME280;56301;56.864;60.554;2023-04-29T00:48:04;98904.06;;;25.06;29.74
69187;BME280;56301;56.864;60.554;2023-04-29T00:50:26;98912.00;;;25.08;30.35
69187;BME280;56301;56.864;60.554;2023-04-29T00:52:51;98904.06;;;25.06;29.97
69187;BME280;56301;56.864;60.554;2023-04-29T00:55:13;98917.63;;;25.06;29.95
69187;BME280;56301;56.864;60.554;2023-04-29T00:57:36;98916.38;;;25.09;30.38
69187;BME280;56301;56.864;60.554;2023-04-29T00:59:59;98919.09;;;25.09;30.34
69187;BME280;56301;56.864;60.554;2023-04-29T01:02:21;98918.25;;;25.08;30.40
69187;BME280;56301;56.864;60.554;2023-04-29T01:04:44;98907.41;;;25.08;29.91
69187;BME280;56301;56.864;60.554;2023-04-29T01:07:08;98914.53;;;25.09;30.05
69187;BME280;56301;56.864;60.554;2023-04-29T01:14:40;98919.97;;;25.09;30.21
69187;BME280;56301;56.864;60.554;2023-04-29T01:17:09;98910.84;;;25.10;30.30
69187;BME280;56301;56.864;60.554;2023-04-29T01:21:54;98917.94;;;25.11;29.93
69187;BME280;56301;56.864;60.554;2023-04-29T01:24:17;98919.59;;;25.12;29.94
69187;BME280;56301;56.864;60.554;2023-04-29T01:26:43;98920.63;;;25.11;29.95
69187;BME280;56301;56.864;60.554;2023-04-29T01:29:34;98926.06;;;25.11;30.30
69187;BME280;56301;56.864;60.554;2023-04-29T01:32:05;98921.66;;;25.10;30.62
69187;BME280;56301;56.864;60.554;2023-04-29T01:37:09;98928.75;;;25.11;30.14
69187;BME280;56301;56.864;60.554;2023-04-29T01:42:23;98934.84;;;25.13;30.31
69187;BME280;56301;56.864;60.554;2023-04-29T01:44:46;98943.31;;;25.10;30.24
69187;BME280;56301;56.864;60.554;2023-04-29T01:47:09;98944.31;;;25.09;31.12
69187;BME280;56301;56.864;60.554;2023-04-29T01:49:38;98947.41;;;25.06;31.02
69187;BME280;56301;56.864;60.554;2023-04-29T01:52:01;98939.44;;;25.05;30.96
69187;BME280;56301;56.864;60.554;2023-04-29T01:54:24;98943.66;;;25.07;30.94
69187;BME280;56301;56.864;60.554;2023-04-29T01:56:46;98941.63;;;25.09;30.52
69187;BME280;56301;56.864;60.554;2023-04-29T01:59:23;98945.00;;;25.11;30.84
69187;BME280;56301;56.864;60.554;2023-04-29T02:02:15;98952.09;;;25.12;30.93
69187;BME280;56301;56.864;60.554;2023-04-29T02:04:47;98953.97;;;25.12;30.35
69187;BME280;56301;56.864;60.554;2023-04-29T02:07:09;98954.81;;;25.12;30.68
69187;BME280;56301;56.864;60.554;2023-04-29T02:09:32;98959.38;;;25.12;30.79
69187;BME280;56301;56.864;60.554;2023-04-29T02:12:02;98950.41;;;25.11;30.24
69187;BME280;56301;56.864;60.554;2023-04-29T02:14:25;98952.28;;;25.11;30.87
69187;BME280;56301;56.864;60.554;2023-04-29T02:16:48;98961.25;;;25.11;30.33
69187;BME280;56301;56.864;60.554;2023-04-29T02:19:11;98962.28;;;25.10;30.63
69187;BME280;56301;56.864;60.554;2023-04-29T02:21:34;98965.00;;;25.10;30.78
69187;BME280;56301;56.864;60.554;2023-04-29T02:23:57;98954.16;;;25.10;31.20
69187;BME280;56301;56.864;60.554;2023-04-29T02:26:20;98961.41;;;25.10;30.66
69187;BME280;56301;56.864;60.554;2023-04-29T02:28:43;98958.88;;;25.08;31.03
69187;BME280;56301;56.864;60.554;2023-04-29T02:31:06;98967.81;;;25.09;31.08
69187;BME280;56301;56.864;60.554;2023-04-29T02:33:28;98960.75;;;25.08;30.64
69187;BME280;56301;56.864;60.554;2023-04-29T02:35:51;98972.41;;;25.08;30.72
69187;BME280;56301;56.864;60.554;2023-04-29T02:38:13;98973.25;;;25.09;30.63
69187;BME280;56301;56.864;60.554;2023-04-29T02:40:45;98965.31;;;25.07;30.74
69187;BME280;56301;56.864;60.554;2023-04-29T02:43:07;98982.41;;;25.08;30.11
69187;BME280;56301;56.864;60.554;2023-04-29T02:45:30;98968.03;;;25.07;30.10
69187;BME280;56301;56.864;60.554;2023-04-29T02:47:53;98982.59;;;25.06;30.14
69187;BME280;56301;56.864;60.554;2023-04-29T02:50:15;98986.28;;;25.05;29.86
69187;BME280;56301;56.864;60.554;2023-04-29T02:52:38;98985.28;;;25.06;30.21
69187;BME280;56301;56.864;60.554;2023-04-29T02:55:00;98979.88;;;25.06;30.04
69187;BME280;56301;56.864;60.554;2023-04-29T02:57:23;98987.81;;;25.08;29.71
69187;BME280;56301;56.864;60.554;2023-04-29T02:59:45;98986.97;;;25.07;29.48
69187;BME280;56301;56.864;60.554;2023-04-29T03:02:08;98984.47;;;25.06;28.87
69187;BME280;56301;56.864;60.554;2023-04-29T03:04:30;98991.34;;;25.08;29.27
69187;BME280;56301;56.864;60.554;2023-04-29T03:06:56;98993.22;;;25.08;30.14
69187;BME280;56301;56.864;60.554;2023-04-29T03:09:21;98984.47;;;25.06;29.87
69187;BME280;56301;56.864;60.554;2023-04-29T03:11:43;98991.03;;;25.11;29.50
69187;BME280;56301;56.864;60.554;2023-04-29T03:14:06;98998.31;;;25.11;29.60
69187;BME280;56301;56.864;60.554;2023-04-29T03:16:28;98990.34;;;25.09;29.64
69187;BME280;56301;56.864;60.554;2023-04-29T03:18:51;99000.19;;;25.10;30.09
69187;BME280;56301;56.864;60.554;2023-04-29T03:21:13;98998.31;;;25.11;28.96
69187;BME280;56301;56.864;60.554;2023-04-29T03:23:36;98992.91;;;25.11;29.50
69187;BME280;56301;56.864;60.554;2023-04-29T03:26:00;99000.84;;;25.12;29.94
69187;BME280;56301;56.864;60.554;2023-04-29T03:28:22;98996.44;;;25.11;29.74
69187;BME280;56301;56.864;60.554;2023-04-29T03:30:45;98997.47;;;25.10;29.84
69187;BME280;56301;56.864;60.554;2023-04-29T03:33:07;98997.47;;;25.10;30.06
69187;BME280;56301;56.864;60.554;2023-04-29T03:35:30;99002.19;;;25.08;28.62
69187;BME280;56301;56.864;60.554;2023-04-29T03:38:12;99010.66;;;25.05;29.48
69187;BME280;56301;56.864;60.554;2023-04-29T03:40:35;99008.31;;;25.10;29.71
69187;BME280;56301;56.864;60.554;2023-04-29T03:42:57;99000.66;;;25.14;29.48
69187;BME280;56301;56.864;60.554;2023-04-29T03:45:20;99005.25;;;25.13;29.21
69187;BME280;56301;56.864;60.554;2023-04-29T03:47:43;99008.31;;;25.10;30.18
69187;BME280;56301;56.864;60.554;2023-04-29T03:50:06;99012.84;;;25.10;29.64
69187;BME280;56301;56.864;60.554;2023-04-29T03:52:28;99014.56;;;25.11;29.56
69187;BME280;56301;56.864;60.554;2023-04-29T03:54:56;99019.97;;;25.11;30.12
69187;BME280;56301;56.864;60.554;2023-04-29T03:57:18;99020.81;;;25.11;29.29
69187;BME280;56301;56.864;60.554;2023-04-29T03:59:41;99015.03;;;25.14;29.63
69187;BME280;56301;56.864;60.554;2023-04-29T04:02:03;99013.38;;;25.13;29.45
69187;BME280;56301;56.864;60.554;2023-04-29T04:04:26;99004.22;;;25.14;29.46
69187;BME280;56301;56.864;60.554;2023-04-29T04:06:48;99016.72;;;25.15;29.31
69187;BME280;56301;56.864;60.554;2023-04-29T04:09:11;99024.69;;;25.17;29.49
69187;BME280;56301;56.864;60.554;2023-04-29T04:11:33;99022.63;;;25.19;29.68
69187;BME280;56301;56.864;60.554;2023-04-29T04:13:58;99028.88;;;25.19;29.72
69187;BME280;56301;56.864;60.554;2023-04-29T04:16:21;99026.00;;;25.21;29.09
69187;BME280;56301;56.864;60.554;2023-04-29T04:18:43;99024.97;;;25.22;29.73
69187;BME280;56301;56.864;60.554;2023-04-29T04:21:09;99023.09;;;25.23;29.52
69187;BME280;56301;56.864;60.554;2023-04-29T04:23:33;99029.19;;;25.25;29.52
69187;BME280;56301;56.864;60.554;2023-04-29T04:25:57;99029.84;;;25.27;28.98
69187;BME280;56301;56.864;60.554;2023-04-29T04:28:49;99026.13;;;25.28;28.73
69187;BME280;56301;56.864;60.554;2023-04-29T04:31:22;99029.13;;;25.33;29.19
69187;BME280;56301;56.864;60.554;2023-04-29T04:33:45;99035.97;;;25.43;28.83
69187;BME280;56301;56.864;60.554;2023-04-29T04:36:08;99029.84;;;25.50;29.13
69187;BME280;56301;56.864;60.554;2023-04-29T04:38:30;99035.19;;;25.58;29.10
69187;BME280;56301;56.864;60.554;2023-04-29T04:40:53;99032.59;;;25.64;28.94
69187;BME280;56301;56.864;60.554;2023-04-29T04:43:29;99028.47;;;25.68;28.82
69187;BME280;56301;56.864;60.554;2023-04-29T04:45:51;99029.88;;;25.64;28.65
69187;BME280;56301;56.864;60.554;2023-04-29T04:48:14;99031.91;;;25.62;28.41
69187;BME280;56301;56.864;60.554;2023-04-29T04:50:38;99030.88;;;25.63;29.07
69187;BME280;56301;56.864;60.554;2023-04-29T04:53:01;99025.94;;;25.67;28.66
69187;BME280;56301;56.864;60.554;2023-04-29T04:55:44;99026.34;;;25.64;28.65
69187;BME280;56301;56.864;60.554;2023-04-29T04:58:07;99037.66;;;25.67;28.42
69187;BME280;56301;56.864;60.554;2023-04-29T05:00:29;99032.22;;;25.67;28.84
69187;BME280;56301;56.864;60.554;2023-04-29T05:02:53;99037.44;;;25.69;28.79
69187;BME280;56301;56.864;60.554;2023-04-29T05:05:15;99026.41;;;25.70;28.73
69187;BME280;56301;56.864;60.554;2023-04-29T05:07:38;99017.44;;;25.70;29.00
69187;BME280;56301;56.864;60.554;2023-04-29T05:10:01;99027.09;;;25.73;27.80
69187;BME280;56301;56.864;60.554;2023-04-29T05:12:26;99025.56;;;25.70;29.05
69187;BME280;56301;56.864;60.554;2023-04-29T05:14:51;99023.06;;;25.68;26.82
69187;BME280;56301;56.864;60.554;2023-04-29T05:17:14;99025.41;;;25.72;28.12
69187;BME280;56301;56.864;60.554;2023-04-29T05:19:37;99025.06;;;25.75;28.68
69187;BME280;56301;56.864;60.554;2023-04-29T05:22:01;99030.47;;;25.75;27.99
69187;BME280;56301;56.864;60.554;2023-04-29T05:24:23;99028.75;;;25.74;28.72
69187;BME280;56301;56.864;60.554;2023-04-29T05:26:46;99029.78;;;25.73;28.51
69187;BME280;56301;56.864;60.554;2023-04-29T05:29:09;99029.44;;;25.76;28.36
69187;BME280;56301;56.864;60.554;2023-04-29T05:31:45;99028.22;;;25.78;28.39
69187;BME280;56301;56.864;60.554;2023-04-29T05:34:07;99029.09;;;25.79;29.09
69187;BME280;56301;56.864;60.554;2023-04-29T05:36:30;99039.06;;;25.78;28.66
69187;BME280;56301;56.864;60.554;2023-04-29T05:38:53;99030.78;;;25.80;29.57
69187;BME280;56301;56.864;60.554;2023-04-29T05:41:16;99031.63;;;25.80;29.10
69187;BME280;56301;56.864;60.554;2023-04-29T05:43:45;99027.88;;;25.81;29.14
69187;BME280;56301;56.864;60.554;2023-04-29T05:46:09;99030.41;;;25.83;29.56
69187;BME280;56301;56.864;60.554;2023-04-29T05:48:32;99027.34;;;25.86;29.49
69187;BME280;56301;56.864;60.554;2023-04-29T05:50:54;99029.66;;;25.89;29.56
69187;BME280;56301;56.864;60.554;2023-04-29T05:53:17;99030.31;;;25.91;29.63
69187;BME280;56301;56.864;60.554;2023-04-29T05:55:39;99023.88;;;25.92;29.91
69187;BME280;56301;56.864;60.554;2023-04-29T05:58:02;99024.72;;;25.92;30.21
69187;BME280;56301;56.864;60.554;2023-04-29T06:00:24;99026.22;;;25.95;30.46
69187;BME280;56301;56.864;60.554;2023-04-29T06:02:53;99027.88;;;25.96;30.59
69187;BME280;56301;56.864;60.554;2023-04-29T06:05:15;99027.16;;;26.02;30.60
69187;BME280;56301;56.864;60.554;2023-04-29T06:07:50;99012.41;;;26.05;29.17
69187;BME280;56301;56.864;60.554;2023-04-29T06:10:27;99006.59;;;26.08;28.90
69187;BME280;56301;56.864;60.554;2023-04-29T06:12:49;99016.41;;;26.09;29.30
69187;BME280;56301;56.864;60.554;2023-04-29T06:15:12;99021.63;;;26.10;30.27
69187;BME280;56301;56.864;60.554;2023-04-29T06:17:34;99016.22;;;26.10;30.19
69187;BME280;56301;56.864;60.554;2023-04-29T06:19:57;99009.13;;;26.09;31.09
69187;BME280;56301;56.864;60.554;2023-04-29T06:22:19;99010.78;;;26.10;31.21
69187;BME280;56301;56.864;60.554;2023-04-29T06:24:45;99015.38;;;26.10;30.67
69187;BME280;56301;56.864;60.554;2023-04-29T06:27:11;99016.03;;;26.12;30.22
69187;BME280;56301;56.864;60.554;2023-04-29T06:29:33;99016.69;;;26.14;29.81
69187;BME280;56301;56.864;60.554;2023-04-29T06:31:57;99020.91;;;26.16;28.14
69187;BME280;56301;56.864;60.554;2023-04-29T06:34:20;99018.44;;;26.22;28.70
69187;BME280;56301;56.864;60.554;2023-04-29T06:37:02;99029.41;;;26.28;28.92
69187;BME280;56301;56.864;60.554;2023-04-29T06:39:48;99016.03;;;26.27;29.13
69187;BME280;56301;56.864;60.554;2023-04-29T06:42:33;99007.69;;;26.28;30.29
69187;BME280;56301;56.864;60.554;2023-04-29T06:45:34;99005.66;;;26.30;30.42
69187;BME280;56301;56.864;60.554;2023-04-29T06:48:04;99007.34;;;26.31;30.01
69187;BME280;56301;56.864;60.554;2023-04-29T06:50:53;99001.91;;;26.31;29.54
69187;BME280;56301;56.864;60.554;2023-04-29T06:53:15;99003.41;;;26.34;30.30
69187;BME280;56301;56.864;60.554;2023-04-29T06:55:38;99000.31;;;26.37;29.99
69187;BME280;56301;56.864;60.554;2023-04-29T06:58:00;98997.25;;;26.40;30.21
69187;BME280;56301;56.864;60.554;2023-04-29T07:00:23;98996.19;;;26.41;29.52
69187;BME280;56301;56.864;60.554;2023-04-29T07:02:45;99002.59;;;26.48;29.90
69187;BME280;56301;56.864;60.554;2023-04-29T07:05:08;98995.78;;;26.74;29.43
69187;BME280;56301;56.864;60.554;2023-04-29T07:07:31;99003.06;;;26.22;29.76
69187;BME280;56301;56.864;60.554;2023-04-29T07:09:53;99001.72;;;25.88;30.04
69187;BME280;56301;56.864;60.554;2023-04-29T07:12:16;99005.59;;;25.71;30.51
69187;BME280;56301;56.864;60.554;2023-04-29T07:14:38;98999.75;;;25.59;30.98
69187;BME280;56301;56.864;60.554;2023-04-29T07:17:01;98998.16;;;25.50;30.93
69187;BME280;56301;56.864;60.554;2023-04-29T07:19:23;98992.59;;;25.29;31.57
69187;BME280;56301;56.864;60.554;2023-04-29T07:21:45;98990.44;;;25.24;31.31
69187;BME280;56301;56.864;60.554;2023-04-29T07:24:08;98982.56;;;25.14;31.84
69187;BME280;56301;56.864;60.554;2023-04-29T07:26:30;98985.25;;;25.14;30.90
69187;BME280;56301;56.864;60.554;2023-04-29T07:28:53;98975.94;;;25.17;31.94
69187;BME280;56301;56.864;60.554;2023-04-29T07:31:15;98980.53;;;25.08;31.57
69187;BME280;56301;56.864;60.554;2023-04-29T07:33:38;98974.09;;;25.09;31.45
69187;BME280;56301;56.864;60.554;2023-04-29T07:36:01;98971.44;;;25.01;31.60
69187;BME280;56301;56.864;60.554;2023-04-29T07:38:24;98974.56;;;24.90;31.46
69187;BME280;56301;56.864;60.554;2023-04-29T07:40:46;98971.78;;;24.98;30.76
69187;BME280;56301;56.864;60.554;2023-04-29T07:43:09;98971.44;;;25.01;30.65
69187;BME280;56301;56.864;60.554;2023-04-29T07:45:31;98961.28;;;25.03;30.12
69187;BME280;56301;56.864;60.554;2023-04-29T07:47:54;98967.06;;;25.00;30.03
69187;BME280;56301;56.864;60.554;2023-04-29T07:50:16;98966.38;;;24.98;30.02
69187;BME280;56301;56.864;60.554;2023-04-29T07:52:39;98971.44;;;24.78;31.45
69187;BME280;56301;56.864;60.554;2023-04-29T07:55:01;98966.56;;;24.73;31.04
69187;BME280;56301;56.864;60.554;2023-04-29T07:57:25;98968.44;;;24.73;31.73
69187;BME280;56301;56.864;60.554;2023-04-29T07:59:51;98962.91;;;24.66;31.68
69187;BME280;56301;56.864;60.554;2023-04-29T08:02:14;98971.16;;;24.65;31.99
69187;BME280;56301;56.864;60.554;2023-04-29T08:04:38;98969.97;;;24.67;32.11
69187;BME280;56301;56.864;60.554;2023-04-29T08:07:04;98975.03;;;24.70;32.37
69187;BME280;56301;56.864;60.554;2023-04-29T08:09:27;98973.59;;;24.60;33.14
69187;BME280;56301;56.864;60.554;2023-04-29T08:11:49;98970.75;;;24.53;33.00
69187;BME280;56301;56.864;60.554;2023-04-29T08:14:11;98964.28;;;24.62;33.32
69187;BME280;56301;56.864;60.554;2023-04-29T08:16:35;98963.25;;;24.63;34.05
69187;BME280;56301;56.864;60.554;2023-04-29T08:18:57;98965.28;;;24.61;34.30
69187;BME280;56301;56.864;60.554;2023-04-29T08:21:20;98969.56;;;24.56;37.00
69187;BME280;56301;56.864;60.554;2023-04-29T08:23:42;98965.03;;;24.48;39.45
69187;BME280;56301;56.864;60.554;2023-04-29T08:26:05;98965.22;;;24.38;37.26
69187;BME280;56301;56.864;60.554;2023-04-29T08:28:27;98965.75;;;24.34;36.91
69187;BME280;56301;56.864;60.554;2023-04-29T08:30:50;98961.00;;;24.44;36.38
69187;BME280;56301;56.864;60.554;2023-04-29T08:33:13;98962.69;;;24.45;36.10
69187;BME280;56301;56.864;60.554;2023-04-29T08:35:35;98962.00;;;24.43;36.20
69187;BME280;56301;56.864;60.554;2023-04-29T08:37:58;98956.59;;;24.43;35.99
69187;BME280;56301;56.864;60.554;2023-04-29T08:40:20;98949.50;;;24.42;35.71
69187;BME280;56301;56.864;60.554;2023-04-29T08:42:43;98948.91;;;24.55;36.86
69187;BME280;56301;56.864;60.554;2023-04-29T08:45:06;98953.66;;;24.53;36.43
69187;BME280;56301;56.864;60.554;2023-04-29T08:47:29;98953.19;;;24.49;35.84
69187;BME280;56301;56.864;60.554;2023-04-29T08:49:52;98944.94;;;24.42;35.79
69187;BME280;56301;56.864;60.554;2023-04-29T08:52:15;98956.09;;;24.47;35.79
69187;BME280;56301;56.864;60.554;2023-04-29T08:54:37;98947.78;;;24.49;35.50
69187;BME280;56301;56.864;60.554;2023-04-29T08:56:59;98958.59;;;24.49;35.99
69187;BME280;56301;56.864;60.554;2023-04-29T08:59:22;98945.28;;;24.39;35.62
69187;BME280;56301;56.864;60.554;2023-04-29T09:01:45;98947.50;;;24.27;35.81
69187;BME280;56301;56.864;60.554;2023-04-29T09:04:09;98950.53;;;24.41;35.15
69187;BME280;56301;56.864;60.554;2023-04-29T09:06:33;98953.22;;;24.41;35.72
69187;BME280;56301;56.864;60.554;2023-04-29T09:08:57;98946.81;;;24.34;35.28
69187;BME280;56301;56.864;60.554;2023-04-29T09:11:20;98946.78;;;24.42;34.71
69187;BME280;56301;56.864;60.554;2023-04-29T09:13:43;98950.03;;;24.29;35.00
69187;BME280;56301;56.864;60.554;2023-04-29T09:16:11;98958.13;;;24.37;34.35
69187;BME280;56301;56.864;60.554;2023-04-29T09:18:44;98949.53;;;24.34;34.85
69187;BME280;56301;56.864;60.554;2023-04-29T09:21:22;98952.22;;;24.34;35.23
69187;BME280;56301;56.864;60.554;2023-04-29T09:23:46;98950.41;;;24.26;34.50
69187;BME280;56301;56.864;60.554;2023-04-29T09:26:08;98957.97;;;24.31;35.05
69187;BME280;56301;56.864;60.554;2023-04-29T09:28:31;98951.19;;;24.35;34.75
69187;BME280;56301;56.864;60.554;2023-04-29T09:30:53;98943.44;;;24.32;35.55
69187;BME280;56301;56.864;60.554;2023-04-29T09:33:16;98947.16;;;24.31;36.01
69187;BME280;56301;56.864;60.554;2023-04-29T09:35:39;98945.84;;;24.26;35.54
69187;BME280;56301;56.864;60.554;2023-04-29T09:38:09;98942.44;;;24.24;35.25
69187;BME280;56301;56.864;60.554;2023-04-29T09:40:32;98945.84;;;24.26;35.46
69187;BME280;56301;56.864;60.554;2023-04-29T09:42:55;98939.41;;;24.27;35.77
69187;BME280;56301;56.864;60.554;2023-04-29T09:45:36;98943.44;;;24.32;35.84
69187;BME280;56301;56.864;60.554;2023-04-29T09:48:02;98938.75;;;24.17;36.12
69187;BME280;56301;56.864;60.554;2023-04-29T09:50:25;98940.09;;;24.21;36.01
69187;BME280;56301;56.864;60.554;2023-04-29T09:52:47;98941.47;;;24.17;36.17
69187;BME280;56301;56.864;60.554;2023-04-29T09:55:10;98936.91;;;24.18;36.54
69187;BME280;56301;56.864;60.554;2023-04-29T09:57:39;98933.69;;;24.22;36.10
69187;BME280;56301;56.864;60.554;2023-04-29T10:00:01;98931.50;;;24.18;36.58
69187;BME280;56301;56.864;60.554;2023-04-29T10:02:24;98936.41;;;24.14;36.62
69187;BME280;56301;56.864;60.554;2023-04-29T10:04:52;98936.41;;;24.14;36.40
69187;BME280;56301;56.864;60.554;2023-04-29T10:07:15;98931.88;;;24.15;36.95
69187;BME280;56301;56.864;60.554;2023-04-29T10:09:38;98928.69;;;24.03;36.96
69187;BME280;56301;56.864;60.554;2023-04-29T10:12:01;98933.91;;;24.13;37.00
69187;BME280;56301;56.864;60.554;2023-04-29T10:14:24;98941.22;;;24.04;36.79
69187;BME280;56301;56.864;60.554;2023-04-29T10:17:35;98931.56;;;24.01;37.27
69187;BME280;56301;56.864;60.554;2023-04-29T10:21:54;98929.75;;;23.94;36.84
69187;BME280;56301;56.864;60.554;2023-04-29T10:24:19;98932.41;;;24.02;37.02
69187;BME280;56301;56.864;60.554;2023-04-29T10:26:42;98920.97;;;23.92;36.52
69187;BME280;56301;56.864;60.554;2023-04-29T10:29:05;98914.88;;;23.98;36.84
69187;BME280;56301;56.864;60.554;2023-04-29T10:31:28;98932.25;;;23.95;36.99
69187;BME280;56301;56.864;60.554;2023-04-29T10:33:55;98925.19;;;23.94;36.76
69187;BME280;56301;56.864;60.554;2023-04-29T10:36:18;98917.22;;;23.93;36.61
69187;BME280;56301;56.864;60.554;2023-04-29T10:38:46;98925.38;;;23.85;37.08
69187;BME280;56301;56.864;60.554;2023-04-29T10:41:14;98918.59;;;23.89;37.09
69187;BME280;56301;56.864;60.554;2023-04-29T10:43:38;98914.22;;;23.88;36.84
69187;BME280;56301;56.864;60.554;2023-04-29T10:48:38;98905.47;;;23.77;36.19
69187;BME280;56301;56.864;60.554;2023-04-29T10:51:00;98906.81;;;23.82;36.95
69187;BME280;56301;56.864;60.554;2023-04-29T10:53:23;98907.88;;;23.72;37.17
69187;BME280;56301;56.864;60.554;2023-04-29T10:55:46;98909.38;;;23.59;36.76
69187;BME280;56301;56.864;60.554;2023-04-29T10:58:51;98901.59;;;23.64;37.64
69187;BME280;56301;56.864;60.554;2023-04-29T11:00:54;98902.47;;;23.64;37.96
69187;BME280;56301;56.864;60.554;2023-04-29T11:03:43;98907.38;;;23.69;37.73
69187;BME280;56301;56.864;60.554;2023-04-29T11:06:07;98901.47;;;23.57;37.58
69187;BME280;56301;56.864;60.554;2023-04-29T11:08:30;98898.44;;;23.52;38.73
69187;BME280;56301;56.864;60.554;2023-04-29T11:10:52;98901.44;;;23.65;39.21
69187;BME280;56301;56.864;60.554;2023-04-29T11:13:24;98902.63;;;23.63;39.11
69187;BME280;56301;56.864;60.554;2023-04-29T11:15:47;98897.75;;;23.58;39.21
69187;BME280;56301;56.864;60.554;2023-04-29T11:18:10;98898.09;;;23.55;39.32
69187;BME280;56301;56.864;60.554;2023-04-29T11:20:52;98896.75;;;23.51;39.87
69187;BME280;56301;56.864;60.554;2023-04-29T11:23:15;98900.13;;;23.53;39.65
69187;BME280;56301;56.864;60.554;2023-04-29T11:25:38;98895.72;;;23.52;39.49
69187;BME280;56301;56.864;60.554;2023-04-29T11:28:00;98902.31;;;23.58;39.94
69187;BME280;56301;56.864;60.554;2023-04-29T11:30:24;98898.94;;;23.55;40.40
69187;BME280;56301;56.864;60.554;2023-04-29T11:32:47;98894.03;;;23.51;40.72
69187;BME280;56301;56.864;60.554;2023-04-29T11:35:13;98900.63;;;23.48;40.42
69187;BME280;56301;56.864;60.554;2023-04-29T11:37:36;98905.88;;;23.50;40.65
69187;BME280;56301;56.864;60.554;2023-04-29T11:39:58;98905.69;;;23.51;40.32
69187;BME280;56301;56.864;60.554;2023-04-29T11:42:21;98902.16;;;23.51;40.42
69187;BME280;56301;56.864;60.554;2023-04-29T11:44:43;98902.16;;;23.51;40.06
69187;BME280;56301;56.864;60.554;2023-04-29T11:47:06;98905.19;;;23.48;40.12
69187;BME280;56301;56.864;60.554;2023-04-29T11:49:29;98905.38;;;23.46;40.22
69187;BME280;56301;56.864;60.554;2023-04-29T11:51:52;98906.22;;;23.47;40.47
69187;BME280;56301;56.864;60.554;2023-04-29T11:54:14;98910.09;;;23.44;41.02
69187;BME280;56301;56.864;60.554;2023-04-29T11:56:37;98904.88;;;23.43;40.67
69187;BME280;56301;56.864;60.554;2023-04-29T11:58:59;98905.22;;;23.40;40.45
69187;BME280;56301;56.864;60.554;2023-04-29T12:01:22;98906.88;;;23.41;40.30
69187;BME280;56301;56.864;60.554;2023-04-29T12:03:47;98905.38;;;23.46;40.26
69187;BME280;56301;56.864;60.554;2023-04-29T12:06:10;98908.56;;;23.42;40.12
69187;BME280;56301;56.864;60.554;2023-04-29T12:08:34;98916.31;;;23.45;40.07
69187;BME280;56301;56.864;60.554;2023-04-29T12:10:57;98907.25;;;23.46;40.01
69187;BME280;56301;56.864;60.554;2023-04-29T12:13:21;98906.91;;;23.33;39.48
69187;BME280;56301;56.864;60.554;2023-04-29T12:15:45;98900.84;;;23.22;39.91
69187;BME280;56301;56.864;60.554;2023-04-29T12:18:08;98907.59;;;23.18;39.65
69187;BME280;56301;56.864;60.554;2023-04-29T12:20:31;98905.75;;;23.19;39.68
69187;BME280;56301;56.864;60.554;2023-04-29T12:22:54;98902.19;;;23.18;39.92
69187;BME280;56301;56.864;60.554;2023-04-29T12:25:16;98897.28;;;23.30;40.04
69187;BME280;56301;56.864;60.554;2023-04-29T12:27:39;98890.72;;;23.24;39.14
69187;BME280;56301;56.864;60.554;2023-04-29T12:30:05;98889.72;;;23.17;40.16
69187;BME280;56301;56.864;60.554;2023-04-29T12:32:27;98892.41;;;23.09;39.41
69187;BME280;56301;56.864;60.554;2023-04-29T12:34:50;98889.06;;;23.07;39.77
69187;BME280;56301;56.864;60.554;2023-04-29T12:37:13;98889.91;;;23.08;39.99
69187;BME280;56301;56.864;60.554;2023-04-29T12:39:36;98883.97;;;23.12;39.92
69187;BME280;56301;56.864;60.554;2023-04-29T12:41:59;98889.72;;;23.17;39.64
69187;BME280;56301;56.864;60.554;2023-04-29T12:44:22;98879.59;;;23.19;39.37
69187;BME280;56301;56.864;60.554;2023-04-29T12:46:44;98884.97;;;23.27;39.54
69187;BME280;56301;56.864;60.554;2023-04-29T12:49:07;98886.50;;;23.30;38.64
69187;BME280;56301;56.864;60.554;2023-04-29T12:51:33;98894.44;;;23.32;38.82
69187;BME280;56301;56.864;60.554;2023-04-29T12:53:56;98888.50;;;23.36;39.04